createdAt,value
2022-12-01T00:01:32.645Z,95835.84
2022-12-01T00:04:19.566Z,95844.25
2022-12-01T00:06:52.663Z,95844.31
2022-12-01T00:10:04.672Z,95845.97
2022-12-01T00:12:51.551Z,95844.31
2022-12-01T00:15:24.669Z,95835.09
2022-12-01T00:18:12.551Z,95837.69
2022-12-01T00:20:45.687Z,95833.50
2022-12-01T00:23:32.560Z,95831.84
2022-12-01T00:26:12.624Z,95831.91
2022-12-01T00:29:01.563Z,95835.25
2022-12-01T00:31:34.726Z,95832.66
2022-12-01T00:34:30.581Z,95836.88
2022-12-01T00:37:03.642Z,95825.13
2022-12-01T00:39:50.755Z,95828.53
2022-12-01T00:42:31.575Z,95832.72
2022-12-01T00:45:25.560Z,95826.78
2022-12-01T00:48:12.581Z,95816.72
2022-12-01T00:50:45.641Z,95815.00
2022-12-01T00:53:32.580Z,95817.50
2022-12-01T00:56:05.694Z,95822.53
2022-12-01T00:58:52.567Z,95815.91
2022-12-01T01:01:32.644Z,95816.72
2022-12-01T01:04:19.559Z,95814.19
2022-12-01T01:06:59.579Z,95814.22
2022-12-01T01:09:53.603Z,95815.00
2022-12-01T01:12:47.581Z,95812.53
2022-12-01T01:15:34.583Z,95806.66
2022-12-01T01:18:09.601Z,95806.59
2022-12-01T01:21:07.589Z,95797.38
2022-12-01T01:23:47.574Z,95805.84
2022-12-01T01:26:43.593Z,95798.28
2022-12-01T01:29:30.581Z,95800.88
2022-12-01T01:32:04.286Z,95798.38
2022-12-01T01:34:50.582Z,95796.69
2022-12-01T01:37:30.585Z,95797.53
2022-12-01T01:40:24.594Z,95805.97
2022-12-01T01:43:21.597Z,95806.00
2022-12-01T01:45:54.741Z,95807.66
2022-12-01T01:48:43.597Z,95809.41
2022-12-01T01:51:20.703Z,95820.34
2022-12-01T01:54:13.577Z,95822.13
2022-12-01T01:56:46.658Z,95828.88
2022-12-01T01:59:40.641Z,95832.28
2022-12-01T02:02:18.803Z,95823.09
2022-12-01T02:05:08.595Z,95824.84
2022-12-01T02:07:41.780Z,95815.63
2022-12-01T02:10:33.584Z,95815.69
2022-12-01T02:13:21.612Z,95816.59
2022-12-01T02:16:26.637Z,95808.28
2022-12-01T02:19:43.623Z,95806.59
2022-12-01T02:23:02.589Z,95799.75
2022-12-01T02:26:10.609Z,95793.88
2022-12-01T02:29:06.618Z,95787.88
2022-12-01T02:31:46.682Z,95790.44
2022-12-01T02:34:52.617Z,95790.47
2022-12-01T02:37:34.666Z,95790.44
2022-12-01T02:40:35.605Z,95789.69
2022-12-01T02:43:31.586Z,95786.31
2022-12-01T02:46:35.784Z,95787.22
2022-12-01T02:49:32.607Z,95784.66
2022-12-01T02:52:06.681Z,95782.06
2022-12-01T02:54:54.596Z,95777.88
2022-12-01T02:57:27.714Z,95781.28
2022-12-01T03:00:19.617Z,95776.28
2022-12-01T03:03:11.583Z,95777.16
2022-12-01T03:06:09.627Z,95763.72
2022-12-01T03:09:10.602Z,95770.41
2022-12-01T03:12:25.610Z,95761.91
2022-12-01T03:15:53.620Z,95764.31
2022-12-01T03:18:55.610Z,95759.19
2022-12-01T03:21:48.600Z,95761.63
2022-12-01T03:24:25.744Z,95763.38
2022-12-01T03:27:12.659Z,95749.88
2022-12-01T03:29:52.756Z,95754.22
2022-12-01T03:32:58.629Z,95753.34
2022-12-01T03:35:49.616Z,95749.19
2022-12-01T03:38:38.677Z,95740.81
2022-12-01T03:41:25.623Z,95739.16
2022-12-01T03:44:27.632Z,95745.84
2022-12-01T03:47:27.617Z,95733.22
2022-12-01T03:50:19.628Z,95734.09
2022-12-01T03:53:26.653Z,95739.91
2022-12-01T03:56:21.702Z,95733.19
2022-12-01T03:59:11.626Z,95732.31
2022-12-01T04:01:44.760Z,95734.88
2022-12-01T04:04:31.632Z,95736.59
2022-12-01T04:07:13.744Z,95735.69
2022-12-01T04:10:07.632Z,95739.13
2022-12-01T04:13:05.630Z,95749.06
2022-12-01T04:15:52.748Z,95745.69
2022-12-01T04:18:26.719Z,95746.53
2022-12-01T04:21:13.612Z,95747.38
2022-12-01T04:24:01.872Z,95758.34
2022-12-01T04:26:49.628Z,95750.78
2022-12-01T04:29:23.361Z,95750.78
2022-12-01T04:32:09.695Z,95760.09
2022-12-01T04:34:42.801Z,95765.16
2022-12-01T04:37:29.635Z,95765.16
2022-12-01T04:40:02.800Z,95755.91
2022-12-01T04:42:49.704Z,95756.72
2022-12-01T04:45:22.775Z,95760.09
2022-12-01T04:48:09.707Z,95766.88
2022-12-01T04:50:42.778Z,95758.53
2022-12-01T04:53:29.642Z,95760.28
2022-12-01T04:56:02.787Z,95767.81
2022-12-01T04:58:49.706Z,95762.78
2022-12-01T05:01:24.845Z,95771.97
2022-12-01T05:04:11.757Z,95767.81
2022-12-01T05:06:44.732Z,95782.94
2022-12-01T05:09:38.676Z,95779.56
2022-12-01T05:12:32.701Z,95784.72
2022-12-01T05:15:19.715Z,95783.06
2022-12-01T05:18:00.690Z,95782.22
2022-12-01T05:21:03.710Z,95790.66
2022-12-01T05:23:52.697Z,95776.50
2022-12-01T05:26:25.808Z,95776.44
2022-12-01T05:29:12.691Z,95780.69
2022-12-01T05:31:52.736Z,95772.31
2022-12-01T05:34:39.702Z,95776.50
2022-12-01T05:37:12.768Z,95770.56
2022-12-01T05:39:59.717Z,95772.22
2022-12-01T05:42:33.827Z,95778.09
2022-12-01T05:45:20.696Z,95782.28
2022-12-01T05:47:53.802Z,95775.56
2022-12-01T05:50:40.691Z,95775.56
2022-12-01T05:53:14.821Z,95776.34
2022-12-01T05:56:01.704Z,95777.19
2022-12-01T05:58:41.754Z,95772.22
2022-12-01T06:01:35.724Z,95781.47
2022-12-01T06:04:22.702Z,95776.50
2022-12-01T06:06:55.837Z,95789.03
2022-12-01T06:09:49.927Z,95779.03
2022-12-01T06:12:43.709Z,95780.78
2022-12-01T06:15:30.687Z,95790.00
2022-12-01T06:18:06.784Z,95786.56
2022-12-01T06:20:53.709Z,95779.03
2022-12-01T06:23:30.339Z,95770.56
2022-12-01T06:26:17.704Z,95775.59
2022-12-01T06:29:00.755Z,95773.91
2022-12-01T06:31:54.735Z,95783.13
2022-12-01T06:34:41.706Z,95773.91
2022-12-01T06:37:15.803Z,95774.81
2022-12-01T06:40:02.730Z,95779.03
2022-12-01T06:42:44.723Z,95777.41
2022-12-01T06:45:38.800Z,95779.03
2022-12-01T06:48:26.729Z,95790.75
2022-12-01T06:51:03.843Z,95778.94
2022-12-01T06:53:50.841Z,95784.00
2022-12-01T06:56:30.723Z,95788.19
2022-12-01T06:59:24.774Z,95794.13
2022-12-01T07:02:18.835Z,95790.06
2022-12-01T07:05:12.804Z,95780.91
2022-12-01T07:08:00.010Z,95784.31
2022-12-01T07:10:33.808Z,95786.09
2022-12-01T07:13:20.743Z,95783.59
2022-12-01T07:16:00.724Z,95783.66
2022-12-01T07:18:54.804Z,95782.84
2022-12-01T07:21:41.704Z,95789.66
2022-12-01T07:24:14.840Z,95784.63
2022-12-01T07:27:01.754Z,95782.97
2022-12-01T07:29:41.801Z,95784.63
2022-12-01T07:32:36.740Z,95787.94
2022-12-01T07:35:30.737Z,95797.16
2022-12-01T07:38:24.795Z,95792.13
2022-12-01T07:41:19.760Z,95790.41
2022-12-01T07:43:53.821Z,95797.09
2022-12-01T07:46:40.809Z,95796.31
2022-12-01T07:49:15.684Z,95805.56
2022-12-01T07:52:02.776Z,95798.00
2022-12-01T07:54:35.793Z,95792.13
2022-12-01T07:57:22.795Z,95787.94
2022-12-01T07:59:55.824Z,95794.72
2022-12-01T08:02:42.825Z,95796.34
2022-12-01T08:05:15.805Z,95788.84
2022-12-01T08:08:02.846Z,95794.78
2022-12-01T08:10:42.752Z,95790.53
2022-12-01T08:13:29.752Z,95791.53
2022-12-01T08:16:02.870Z,95789.91
2022-12-01T08:18:50.748Z,95786.56
2022-12-01T08:21:26.859Z,95788.38
2022-12-01T08:24:13.761Z,95790.13
2022-12-01T08:26:46.867Z,95787.63
2022-12-01T08:29:33.764Z,95777.47
2022-12-01T08:32:06.860Z,95790.91
2022-12-01T08:34:53.947Z,95780.84
2022-12-01T08:37:34.757Z,95786.63
2022-12-01T08:40:28.790Z,95788.19
2022-12-01T08:43:49.445Z,95789.00
2022-12-01T08:46:36.825Z,95794.03
2022-12-01T08:49:23.755Z,95796.63
2022-12-01T08:52:04.011Z,95801.66
2022-12-01T08:54:57.753Z,95799.22
2022-12-01T08:57:44.960Z,95803.41
2022-12-01T09:00:26.783Z,95796.75
2022-12-01T09:03:13.800Z,95790.16
2022-12-01T09:05:46.847Z,95796.91
2022-12-01T09:08:40.942Z,95782.72
2022-12-01T09:11:23.815Z,95786.19
2022-12-01T09:14:10.760Z,95781.19
2022-12-01T09:16:43.963Z,95778.63
2022-12-01T09:19:30.760Z,95776.94
2022-12-01T09:22:03.899Z,95778.59
2022-12-01T09:24:50.767Z,95785.19
2022-12-01T09:27:23.801Z,95777.63
2022-12-01T09:30:11.765Z,95772.53
2022-12-01T09:32:44.869Z,95776.78
2022-12-01T09:35:31.810Z,95784.28
2022-12-01T09:38:05.904Z,95770.91
2022-12-01T09:40:52.772Z,95779.22
2022-12-01T09:43:30.899Z,95779.19
2022-12-01T09:46:25.834Z,95773.97
2022-12-01T09:49:01.154Z,95775.56
2022-12-01T09:51:47.756Z,95768.88
2022-12-01T09:54:20.840Z,95771.44
2022-12-01T09:57:07.806Z,95771.47
2022-12-01T09:59:46.969Z,95766.56
2022-12-01T10:02:39.831Z,95763.97
2022-12-01T10:05:46.879Z,95773.97
2022-12-01T10:09:00.767Z,95764.69
2022-12-01T10:11:57.762Z,95769.69
2022-12-01T10:14:44.785Z,95764.50
2022-12-01T10:17:52.445Z,95751.78
2022-12-01T10:20:51.847Z,95752.72
2022-12-01T10:23:43.832Z,95754.47
2022-12-01T10:26:44.768Z,95751.19
2022-12-01T10:29:46.411Z,95756.22
2022-12-01T10:32:55.817Z,95762.06
2022-12-01T10:35:43.833Z,95767.16
2022-12-01T10:38:27.907Z,95768.88
2022-12-01T10:41:19.821Z,95763.84
2022-12-01T10:44:08.157Z,95755.47
2022-12-01T10:47:01.824Z,95757.28
2022-12-01T10:49:50.977Z,95750.59
2022-12-01T10:52:46.764Z,95747.88
2022-12-01T10:55:48.168Z,95748.72
2022-12-01T10:58:34.764Z,95746.22
2022-12-01T11:01:11.893Z,95743.75
2022-12-01T11:04:05.822Z,95739.56
2022-12-01T11:06:39.847Z,95740.34
2022-12-01T11:09:35.821Z,95737.84
2022-12-01T11:12:17.827Z,95731.16
2022-12-01T11:15:11.854Z,95727.78
2022-12-01T11:18:10.754Z,95732.09
2022-12-01T11:20:52.772Z,95733.72
2022-12-01T11:23:50.765Z,95728.66
2022-12-01T11:26:46.794Z,95732.81
2022-12-01T11:29:51.149Z,95733.47
2022-12-01T11:32:48.789Z,95733.47
2022-12-01T11:35:46.785Z,95734.44
2022-12-01T11:38:40.832Z,95736.16
2022-12-01T11:41:40.781Z,95726.94
2022-12-01T11:44:50.444Z,95723.56
2022-12-01T11:47:30.834Z,95728.59
2022-12-01T11:50:39.812Z,95741.94
2022-12-01T11:53:38.805Z,95732.63
2022-12-01T11:56:33.845Z,95736.75
2022-12-01T11:59:26.790Z,95739.28
2022-12-01T12:02:29.890Z,95738.44
2022-12-01T12:05:41.812Z,95737.59
2022-12-01T12:08:39.890Z,95729.22
2022-12-01T12:11:36.857Z,95730.13
2022-12-01T12:14:41.810Z,95729.28
2022-12-01T12:17:35.946Z,95725.09
2022-12-01T12:20:48.797Z,95721.91
2022-12-01T12:24:02.885Z,95725.25
2022-12-01T12:27:15.810Z,95722.81
2022-12-01T12:30:12.943Z,95717.72
2022-12-01T12:33:43.809Z,95716.78
2022-12-01T12:36:53.823Z,95715.78
2022-12-01T12:39:35.898Z,95724.97
2022-12-01T12:42:30.805Z,95723.13
2022-12-01T12:45:20.883Z,95719.00
2022-12-01T12:48:16.807Z,95726.53
2022-12-01T12:51:04.896Z,95727.38
2022-12-01T12:53:57.875Z,95724.88
2022-12-01T12:56:33.922Z,95724.97
2022-12-01T12:59:28.847Z,95724.13
2022-12-01T13:02:33.111Z,95726.53
2022-12-01T13:05:25.809Z,95728.22
2022-12-01T13:08:18.884Z,95734.94
2022-12-01T13:11:29.817Z,95734.16
2022-12-01T13:14:30.823Z,95730.81
2022-12-01T13:17:31.836Z,95730.06
2022-12-01T13:20:24.825Z,95730.75
2022-12-01T13:23:05.846Z,95735.69
2022-12-01T13:26:03.924Z,95735.63
2022-12-01T13:28:55.891Z,95735.56
2022-12-01T13:31:36.918Z,95740.53
2022-12-01T13:34:28.828Z,95732.94
2022-12-01T13:37:09.828Z,95723.66
2022-12-01T13:40:00.821Z,95724.50
2022-12-01T13:42:34.910Z,95721.91
2022-12-01T13:45:25.828Z,95732.72
2022-12-01T13:48:07.816Z,95726.09
2022-12-01T13:51:15.810Z,95726.94
2022-12-01T13:54:12.821Z,95716.03
2022-12-01T13:57:09.882Z,95717.72
2022-12-01T14:00:05.833Z,95722.75
2022-12-01T14:02:43.082Z,95731.16
2022-12-01T14:05:29.843Z,95725.25
2022-12-01T14:08:10.867Z,95736.19
2022-12-01T14:11:10.849Z,95738.63
2022-12-01T14:14:07.896Z,95742.84
2022-12-01T14:17:04.919Z,95729.38
2022-12-01T14:19:57.840Z,95732.72
2022-12-01T14:22:44.709Z,95734.44
2022-12-01T14:25:36.838Z,95735.94
2022-12-01T14:28:10.990Z,95734.25
2022-12-01T14:30:58.864Z,95738.41
2022-12-01T14:33:56.954Z,95734.19
2022-12-01T14:36:49.835Z,95739.97
2022-12-01T14:39:26.135Z,95736.50
2022-12-01T14:43:00.837Z,95735.56
2022-12-01T14:45:54.878Z,95732.00
2022-12-01T14:48:48.837Z,95721.94
2022-12-01T14:51:42.853Z,95727.09
2022-12-01T14:54:47.211Z,95713.63
2022-12-01T14:58:14.846Z,95719.53
2022-12-01T15:01:10.990Z,95729.53
2022-12-01T15:03:43.924Z,95723.59
2022-12-01T15:06:33.872Z,95727.84
2022-12-01T15:09:37.236Z,95726.03
2022-12-01T15:12:39.856Z,95727.53
2022-12-01T15:15:38.851Z,95721.59
2022-12-01T15:18:43.836Z,95722.44
2022-12-01T15:21:30.882Z,95719.09
2022-12-01T15:24:41.895Z,95735.88
2022-12-01T15:27:41.852Z,95721.53
2022-12-01T15:30:28.863Z,95726.50
2022-12-01T15:33:01.946Z,95732.34
2022-12-01T15:35:48.876Z,95723.06
2022-12-01T15:38:28.920Z,95726.47
2022-12-01T15:41:31.299Z,95723.97
2022-12-01T15:44:14.877Z,95724.72
2022-12-01T15:47:08.864Z,95722.16
2022-12-01T15:49:55.880Z,95725.50
2022-12-01T15:52:29.998Z,95718.78
2022-12-01T15:55:31.875Z,95723.97
2022-12-01T15:58:05.951Z,95729.00
2022-12-01T16:01:03.954Z,95733.03
2022-12-01T16:03:37.943Z,95729.69
2022-12-01T16:06:25.881Z,95726.34
2022-12-01T16:09:28.991Z,95738.97
2022-12-01T16:12:15.899Z,95723.88
2022-12-01T16:14:58.976Z,95733.94
2022-12-01T16:17:54.865Z,95730.44
2022-12-01T16:20:30.176Z,95732.13
2022-12-01T16:23:21.866Z,95737.22
2022-12-01T16:26:02.388Z,95733.78
2022-12-01T16:28:48.880Z,95733.84
2022-12-01T16:31:26.043Z,95730.59
2022-12-01T16:34:37.969Z,95735.59
2022-12-01T16:37:12.883Z,95738.88
2022-12-01T16:39:59.894Z,95732.94
2022-12-01T16:42:40.868Z,95727.75
2022-12-01T16:45:34.904Z,95729.50
2022-12-01T16:48:25.901Z,95728.66
2022-12-01T16:50:59.966Z,95727.84
2022-12-01T16:53:50.804Z,95720.25
2022-12-01T16:56:30.874Z,95730.34
2022-12-01T16:59:24.883Z,95730.28
2022-12-01T17:02:12.953Z,95726.16
2022-12-01T17:04:46.043Z,95733.78
2022-12-01T17:07:32.958Z,95729.13
2022-12-01T17:10:12.942Z,95736.78
2022-12-01T17:13:06.923Z,95732.66
2022-12-01T17:16:03.969Z,95734.34
2022-12-01T17:18:50.912Z,95741.13
2022-12-01T17:21:30.880Z,95740.88
2022-12-01T17:24:19.314Z,95739.13
2022-12-01T17:26:52.977Z,95731.50
2022-12-01T17:29:45.705Z,95739.13
2022-12-01T17:32:20.102Z,95736.63
2022-12-01T17:35:06.959Z,95739.81
2022-12-01T17:37:39.999Z,95732.22
2022-12-01T17:40:26.906Z,95732.22
2022-12-01T17:43:06.913Z,95727.09
2022-12-01T17:45:53.940Z,95725.44
2022-12-01T17:48:34.057Z,95727.94
2022-12-01T17:51:28.901Z,95727.19
2022-12-01T17:54:15.905Z,95726.34
2022-12-01T17:56:49.055Z,95724.63
2022-12-01T17:59:35.935Z,95730.44
2022-12-01T18:02:17.011Z,95736.22
2022-12-01T18:05:10.973Z,95730.28
2022-12-01T18:07:57.941Z,95730.28
2022-12-01T18:10:30.999Z,95730.28
2022-12-01T18:13:24.967Z,95728.59
2022-12-01T18:16:32.976Z,95733.63
2022-12-01T18:19:26.954Z,95731.88
2022-12-01T18:22:13.982Z,95734.25
2022-12-01T18:24:47.136Z,95727.53
2022-12-01T18:27:33.911Z,95730.09
2022-12-01T18:30:07.167Z,95724.25
2022-12-01T18:32:53.904Z,95726.84
2022-12-01T18:35:31.599Z,95721.84
2022-12-01T18:38:18.914Z,95724.31
2022-12-01T18:40:51.983Z,95715.94
2022-12-01T18:43:39.916Z,95715.94
2022-12-01T18:46:21.007Z,95713.50
2022-12-01T18:49:08.944Z,95719.44
2022-12-01T18:51:50.916Z,95717.72
2022-12-01T18:54:44.953Z,95719.31
2022-12-01T18:57:31.942Z,95725.06
2022-12-01T19:00:06.083Z,95722.59
2022-12-01T19:02:52.932Z,95720.06
2022-12-01T19:05:26.033Z,95726.03
2022-12-01T19:08:12.951Z,95717.69
2022-12-01T19:10:52.930Z,95727.00
2022-12-01T19:13:47.999Z,95715.19
2022-12-01T19:16:35.037Z,95733.47
2022-12-01T19:19:14.928Z,95722.44
2022-12-01T19:22:01.946Z,95714.03
2022-12-01T19:24:44.829Z,95705.66
2022-12-01T19:27:41.947Z,95708.09
2022-12-01T19:30:28.950Z,95713.19
2022-12-01T19:33:02.002Z,95707.31
2022-12-01T19:35:48.959Z,95710.63
2022-12-01T19:38:22.005Z,95705.50
2022-12-01T19:41:09.951Z,95718.81
2022-12-01T19:43:44.071Z,95712.88
2022-12-01T19:46:33.972Z,95708.63
2022-12-01T19:49:08.072Z,95705.22
2022-12-01T19:51:54.927Z,95716.13
2022-12-01T19:54:28.813Z,95712.03
2022-12-01T19:57:15.938Z,95715.31
2022-12-01T19:59:49.020Z,95719.50
2022-12-01T20:02:35.987Z,95719.50
2022-12-01T20:05:09.047Z,95718.75
2022-12-01T20:07:56.023Z,95709.53
2022-12-01T20:10:35.978Z,95718.00
2022-12-01T20:13:29.966Z,95714.47
2022-12-01T20:16:23.050Z,95720.41
2022-12-01T20:19:03.993Z,95718.81
2022-12-01T20:21:57.963Z,95713.03
2022-12-01T20:24:48.174Z,95714.72
2022-12-01T20:27:21.054Z,95716.47
2022-12-01T20:30:07.947Z,95714.78
2022-12-01T20:32:41.068Z,95719.81
2022-12-01T20:35:27.974Z,95718.09
2022-12-01T20:38:01.052Z,95721.44
2022-12-01T20:40:47.962Z,95709.78
2022-12-01T20:43:21.022Z,95711.44
2022-12-01T20:46:08.036Z,95703.94
2022-12-01T20:48:41.095Z,95712.34
2022-12-01T20:51:28.038Z,95712.34
2022-12-01T20:54:26.923Z,95709.78
2022-12-01T20:57:07.951Z,95709.00
2022-12-01T20:59:42.237Z,95715.72
2022-12-01T21:02:29.007Z,95719.91
2022-12-01T21:05:02.415Z,95711.47
2022-12-01T21:07:49.084Z,95715.72
2022-12-01T21:10:22.018Z,95712.28
2022-12-01T21:13:48.063Z,95716.41
2022-12-01T21:16:46.028Z,95717.16
2022-12-01T21:19:47.970Z,95718.00
2022-12-01T21:22:34.972Z,95708.63
2022-12-01T21:25:18.736Z,95712.66
2022-12-01T21:28:09.975Z,95720.09
2022-12-01T21:30:43.083Z,95722.59
2022-12-01T21:33:40.984Z,95724.22
2022-12-01T21:36:28.124Z,95725.91
2022-12-01T21:39:21.011Z,95725.03
2022-12-01T21:41:59.026Z,95712.38
2022-12-01T21:44:45.976Z,95718.19
2022-12-01T21:47:26.054Z,95715.69
2022-12-01T21:50:21.988Z,95714.75
2022-12-01T21:52:56.105Z,95719.78
2022-12-01T21:55:43.967Z,95719.69
2022-12-01T21:58:39.053Z,95714.66
2022-12-01T22:01:37.071Z,95712.06
2022-12-01T22:04:20.117Z,95713.69
2022-12-01T22:07:07.003Z,95717.69
2022-12-01T22:09:42.073Z,95712.59
2022-12-01T22:12:35.005Z,95719.44
2022-12-01T22:15:18.986Z,95715.25
2022-12-01T22:18:06.003Z,95716.03
2022-12-01T22:20:46.005Z,95713.53
2022-12-01T22:23:42.994Z,95712.78
2022-12-01T22:26:32.987Z,95712.06
2022-12-01T22:29:37.995Z,95705.47
2022-12-01T22:32:18.009Z,95702.09
2022-12-01T22:35:10.999Z,95702.03
2022-12-01T22:37:59.028Z,95699.50
2022-12-01T22:40:52.041Z,95694.50
2022-12-01T22:43:58.992Z,95695.25
2022-12-01T22:46:49.075Z,95696.06
2022-12-01T22:49:37.009Z,95690.16
2022-12-01T22:52:33.002Z,95693.50
2022-12-01T22:55:13.014Z,95690.97
2022-12-01T22:58:07.034Z,95689.28
2022-12-01T23:00:54.019Z,95695.91
2022-12-01T23:03:27.096Z,95696.66
2022-12-01T23:06:52.000Z,95694.91
2022-12-01T23:09:34.044Z,95688.19
2022-12-01T23:12:37.016Z,95687.38
2022-12-01T23:15:47.076Z,95674.66
2022-12-01T23:18:41.009Z,95683.88
2022-12-01T23:21:21.019Z,95686.31
2022-12-01T23:24:10.006Z,95679.47
2022-12-01T23:26:43.087Z,95671.91
2022-12-01T23:29:30.017Z,95667.72
2022-12-01T23:32:03.095Z,95666.78
2022-12-01T23:34:50.750Z,95660.94
2022-12-01T23:37:36.091Z,95663.44
2022-12-01T23:40:27.996Z,95665.19
2022-12-01T23:43:01.092Z,95661.09
2022-12-01T23:45:48.023Z,95665.28
2022-12-01T23:48:32.107Z,95670.28
2022-12-01T23:51:46.019Z,95661.13
2022-12-01T23:54:43.057Z,95667.88
2022-12-01T23:57:39.027Z,95662.03
